Time;durP1;ratioP1;P1;durP2;ratioP2;P2;SDS_P1;SDS_P2;PMS_P1;PMS_P2;Temp;Humidity;BMP_temperature;BMP_pressure;BME280_temperature;BME280_humidity;BME280_pressure;Samples;Min_cycle;Max_cycle;Signal;HPM_P1;HPM_P2
2024/01/29 00:00:28;;;;;;;5.03;2.97;;;-0.50;68.50;;;;;;6255492;28;20233;-61
2024/01/29 00:03:29;;;;;;;5.83;3.60;;;-0.50;67.60;;;;;;6244166;28;20213;-61
2024/01/29 00:06:30;;;;;;;6.47;3.80;;;-0.60;68.00;;;;;;6244076;28;20658;-61
2024/01/29 00:09:31;;;;;;;8.33;4.10;;;-0.60;68.50;;;;;;6232578;28;20190;-61
2024/01/29 00:12:32;;;;;;;6.00;3.60;;;-0.60;68.30;;;;;;6234851;28;20200;-61
2024/01/29 00:15:32;;;;;;;6.93;3.33;;;-0.60;68.70;;;;;;6249123;28;20193;-61
2024/01/29 00:18:33;;;;;;;5.77;3.33;;;-0.60;68.50;;;;;;6244088;28;20237;-61
2024/01/29 00:21:34;;;;;;;5.30;2.90;;;-0.70;69.00;;;;;;6254312;28;20430;-61
2024/01/29 00:24:34;;;;;;;6.17;3.03;;;-0.60;68.70;;;;;;6255508;28;20286;-61
2024/01/29 00:27:35;;;;;;;5.90;3.43;;;-0.70;69.20;;;;;;6243717;28;20193;-61
2024/01/29 00:30:36;;;;;;;5.87;3.30;;;-0.70;69.00;;;;;;6244725;28;20244;-61
2024/01/29 00:33:36;;;;;;;5.47;3.50;;;-0.70;69.00;;;;;;6232859;28;20190;-60
2024/01/29 00:36:37;;;;;;;6.50;3.57;;;-0.70;69.20;;;;;;6249011;28;20228;-61
2024/01/29 00:39:38;;;;;;;5.47;2.90;;;-0.80;68.90;;;;;;6255994;28;20224;-61
2024/01/29 00:42:39;;;;;;;5.47;3.27;;;-0.90;69.00;;;;;;6255631;28;20198;-61
2024/01/29 00:45:39;;;;;;;4.10;2.97;;;-0.80;68.90;;;;;;6258017;28;20190;-61
2024/01/29 00:48:41;;;;;;;5.63;3.00;;;-0.80;68.70;;;;;;6261862;28;20190;-61
2024/01/29 00:51:42;;;;;;;3.47;2.77;;;-0.90;69.30;;;;;;6250187;28;20204;-61
2024/01/29 00:54:42;;;;;;;4.93;3.23;;;-0.80;69.00;;;;;;6264554;28;20217;-61
2024/01/29 00:57:43;;;;;;;5.67;3.20;;;-0.80;69.10;;;;;;6256992;28;20194;-61
2024/01/29 01:00:44;;;;;;;3.23;2.77;;;-0.80;69.50;;;;;;6240646;28;20261;-61
2024/01/29 01:03:45;;;;;;;3.97;2.77;;;-0.80;69.40;;;;;;6257416;28;20235;-61
2024/01/29 01:06:45;;;;;;;5.37;3.07;;;-0.80;69.30;;;;;;6249049;28;20193;-61
2024/01/29 01:09:46;;;;;;;4.77;3.03;;;-0.90;69.20;;;;;;6264039;28;20191;-61
2024/01/29 01:12:47;;;;;;;6.43;3.20;;;-0.90;69.60;;;;;;6261547;28;20243;-61
2024/01/29 01:15:47;;;;;;;6.17;3.67;;;-0.90;69.60;;;;;;6246521;28;20205;-61
2024/01/29 01:18:48;;;;;;;3.73;2.40;;;-0.90;69.80;;;;;;6249985;28;20208;-61
2024/01/29 01:21:50;;;;;;;6.73;2.97;;;-1.00;69.50;;;;;;6253758;28;20221;-61
2024/01/29 01:24:51;;;;;;;5.63;2.73;;;-1.00;69.40;;;;;;6257374;28;20256;-61
2024/01/29 01:27:53;;;;;;;6.40;2.90;;;-1.00;69.50;;;;;;6251072;28;20190;-61
2024/01/29 01:30:54;;;;;;;3.63;2.63;;;-1.10;69.70;;;;;;6243287;28;20190;-61
2024/01/29 01:33:56;;;;;;;5.37;2.83;;;-1.10;70.00;;;;;;6278291;28;20190;-61
2024/01/29 01:36:57;;;;;;;4.97;3.10;;;-1.10;69.80;;;;;;6252291;28;20198;-61
2024/01/29 01:39:57;;;;;;;5.40;3.20;;;-1.10;69.80;;;;;;6248829;28;20272;-60
2024/01/29 01:42:58;;;;;;;3.73;2.83;;;-1.20;70.00;;;;;;6255440;28;20236;-61
2024/01/29 01:46:01;;;;;;;6.60;2.83;;;-1.20;69.70;;;;;;6257818;28;20192;-61
2024/01/29 01:49:02;;;;;;;7.13;3.07;;;-1.30;70.40;;;;;;6251764;28;20186;-61
2024/01/29 01:52:04;;;;;;;6.00;3.03;;;-1.30;70.30;;;;;;6243304;28;20194;-61
2024/01/29 01:55:05;;;;;;;4.70;3.03;;;-1.30;70.30;;;;;;6253460;28;20190;-61
2024/01/29 01:58:08;;;;;;;4.03;2.93;;;-1.30;70.60;;;;;;6274134;28;20182;-61
2024/01/29 02:01:08;;;;;;;5.77;3.10;;;-1.30;70.50;;;;;;6263833;28;20229;-60
2024/01/29 02:04:09;;;;;;;5.37;3.10;;;-1.30;70.70;;;;;;6257777;28;20227;-61
2024/01/29 02:07:10;;;;;;;8.13;2.97;;;-1.30;70.50;;;;;;6246956;28;20247;-61
2024/01/29 02:10:11;;;;;;;5.17;3.03;;;-1.30;70.30;;;;;;6242003;28;20202;-60
2024/01/29 02:13:13;;;;;;;6.93;3.67;;;-1.30;70.20;;;;;;6267281;28;20197;-60
2024/01/29 02:16:13;;;;;;;3.83;2.90;;;-1.30;70.60;;;;;;6263819;28;20213;-60
2024/01/29 02:19:17;;;;;;;4.53;2.87;;;-1.40;70.80;;;;;;6263820;28;20197;-61
2024/01/29 02:22:18;;;;;;;4.87;3.03;;;-1.40;70.30;;;;;;6234746;28;20282;-61
2024/01/29 02:25:19;;;;;;;6.83;2.63;;;-1.50;70.80;;;;;;6242140;28;20213;-61
2024/01/29 02:28:20;;;;;;;5.13;2.80;;;-1.50;70.60;;;;;;6253422;28;20442;-61
2024/01/29 02:31:20;;;;;;;5.73;2.83;;;-1.50;70.90;;;;;;6267463;28;20190;-61
2024/01/29 02:34:21;;;;;;;7.73;3.33;;;-1.50;71.20;;;;;;6258204;28;20216;-60
2024/01/29 02:37:22;;;;;;;4.97;2.90;;;-1.50;70.70;;;;;;6267216;28;20199;-61
2024/01/29 02:40:23;;;;;;;5.50;2.90;;;-1.50;71.00;;;;;;6257279;28;20195;-60
2024/01/29 02:43:23;;;;;;;4.87;2.90;;;-1.50;71.00;;;;;;6251384;28;20260;-61
2024/01/29 02:46:24;;;;;;;4.13;2.53;;;-1.50;70.80;;;;;;6265370;28;20187;-60
2024/01/29 02:49:25;;;;;;;4.73;2.43;;;-1.50;71.00;;;;;;6271523;28;20186;-61
2024/01/29 02:52:25;;;;;;;4.90;2.50;;;-1.60;71.40;;;;;;6246310;28;20199;-60
2024/01/29 02:55:26;;;;;;;5.13;2.70;;;-1.60;71.50;;;;;;6256312;28;20226;-60
2024/01/29 02:58:27;;;;;;;5.13;3.10;;;-1.60;70.90;;;;;;6250568;28;20196;-61
2024/01/29 03:01:27;;;;;;;5.67;3.23;;;-1.70;71.50;;;;;;6263125;28;20245;-60
2024/01/29 03:04:28;;;;;;;5.10;3.07;;;-1.60;71.10;;;;;;6247457;28;20229;-61
2024/01/29 03:07:29;;;;;;;4.43;2.50;;;-1.70;71.30;;;;;;6233913;28;20196;-61
2024/01/29 03:10:29;;;;;;;5.53;2.97;;;-1.70;71.20;;;;;;6233381;28;20185;-60
2024/01/29 03:13:30;;;;;;;4.27;2.87;;;-1.70;71.60;;;;;;6247041;28;20191;-61
2024/01/29 03:16:31;;;;;;;6.43;3.20;;;-1.70;71.20;;;;;;6257234;28;20194;-61
2024/01/29 03:19:31;;;;;;;10.10;3.13;;;-1.70;71.20;;;;;;6255670;28;20190;-60
2024/01/29 03:22:32;;;;;;;3.60;2.57;;;-1.70;71.20;;;;;;6254750;28;20191;-61
2024/01/29 03:25:33;;;;;;;5.63;3.37;;;-1.80;71.60;;;;;;6245634;28;20230;-60
2024/01/29 03:28:33;;;;;;;3.90;2.50;;;-1.80;71.90;;;;;;6263766;28;20196;-61
2024/01/29 03:31:34;;;;;;;3.67;2.60;;;-1.80;72.10;;;;;;6242246;28;20214;-61
2024/01/29 03:34:35;;;;;;;3.80;2.30;;;-1.70;71.80;;;;;;6238452;28;20283;-61
2024/01/29 03:37:35;;;;;;;4.60;2.70;;;-1.80;71.80;;;;;;6245013;28;20188;-61
2024/01/29 03:40:37;;;;;;;5.27;2.93;;;-1.80;71.60;;;;;;6241486;28;20181;-60
2024/01/29 03:43:37;;;;;;;3.30;2.50;;;-1.70;71.70;;;;;;6266306;28;20245;-60
2024/01/29 03:46:38;;;;;;;5.73;2.87;;;-1.80;71.80;;;;;;6238845;28;20189;-60
2024/01/29 03:49:39;;;;;;;6.17;2.43;;;-1.80;71.70;;;;;;6264016;28;20183;-61
2024/01/29 03:52:39;;;;;;;4.87;2.90;;;-1.80;71.90;;;;;;6250587;28;20182;-61
2024/01/29 03:55:41;;;;;;;2.83;2.40;;;-1.80;72.00;;;;;;6258209;28;20196;-61
2024/01/29 03:58:42;;;;;;;6.83;2.60;;;-1.80;71.90;;;;;;6271097;28;20196;-60
2024/01/29 04:01:43;;;;;;;4.20;2.50;;;-1.90;72.20;;;;;;6234796;28;20229;-60
2024/01/29 04:04:43;;;;;;;5.37;2.50;;;-1.90;72.00;;;;;;6252623;28;20205;-60
2024/01/29 04:07:45;;;;;;;4.23;2.60;;;-1.80;72.10;;;;;;6246399;28;20213;-61
2024/01/29 04:10:46;;;;;;;6.63;3.10;;;-1.90;72.10;;;;;;6259755;28;20186;-61
2024/01/29 04:13:46;;;;;;;7.00;3.43;;;-1.90;72.20;;;;;;6270164;28;20211;-61
2024/01/29 04:16:47;;;;;;;4.33;2.83;;;-2.00;72.50;;;;;;6246739;28;20280;-61
2024/01/29 04:19:48;;;;;;;5.43;2.80;;;-2.00;72.30;;;;;;6243425;28;20192;-61
2024/01/29 04:22:49;;;;;;;6.00;2.70;;;-2.00;72.30;;;;;;6235864;28;20200;-60
2024/01/29 04:25:49;;;;;;;4.07;2.77;;;-2.00;72.20;;;;;;6240623;28;20218;-61
2024/01/29 04:28:50;;;;;;;3.00;2.40;;;-2.00;72.50;;;;;;6240639;28;20419;-60
2024/01/29 04:31:51;;;;;;;3.37;2.43;;;-2.00;72.10;;;;;;6250431;28;20196;-60
2024/01/29 04:34:52;;;;;;;5.03;2.87;;;-2.00;72.90;;;;;;6227216;28;20242;-61
2024/01/29 04:37:53;;;;;;;6.37;2.83;;;-2.00;72.70;;;;;;6250887;28;20185;-60
2024/01/29 04:40:53;;;;;;;5.07;2.87;;;-2.00;72.90;;;;;;6259682;28;20213;-60
2024/01/29 04:43:54;;;;;;;6.20;2.97;;;-2.00;72.70;;;;;;6241433;28;20294;-60
2024/01/29 04:46:55;;;;;;;4.43;3.07;;;-2.00;72.70;;;;;;6248898;28;20194;-60
2024/01/29 04:49:55;;;;;;;3.80;2.70;;;-2.00;72.70;;;;;;6253791;28;20197;-60
2024/01/29 04:52:56;;;;;;;5.97;3.03;;;-2.00;72.50;;;;;;6246100;28;20195;-61
2024/01/29 04:55:56;;;;;;;4.67;2.97;;;-2.00;72.70;;;;;;6257526;28;20200;-60
2024/01/29 04:58:57;;;;;;;4.83;2.53;;;-2.00;72.50;;;;;;6263307;28;20204;-61
2024/01/29 05:01:58;;;;;;;3.77;2.57;;;-2.00;72.50;;;;;;6244376;28;20304;-61
2024/01/29 05:04:58;;;;;;;5.67;2.80;;;-2.10;73.00;;;;;;6249299;28;20216;-61
2024/01/29 05:07:59;;;;;;;5.43;2.63;;;-2.10;72.80;;;;;;6253013;28;20303;-61
2024/01/29 05:11:00;;;;;;;4.27;2.73;;;-2.10;73.00;;;;;;6244311;28;20192;-61
2024/01/29 05:14:00;;;;;;;5.97;3.33;;;-2.10;72.90;;;;;;6232862;28;20194;-61
2024/01/29 05:17:01;;;;;;;3.47;2.67;;;-2.10;72.90;;;;;;6245242;28;20195;-61
2024/01/29 05:20:02;;;;;;;4.53;2.67;;;-2.10;72.70;;;;;;6242683;28;20190;-62
2024/01/29 05:23:03;;;;;;;3.23;2.27;;;-2.10;73.30;;;;;;6275328;28;20225;-61
2024/01/29 05:26:04;;;;;;;4.37;2.80;;;-2.00;73.30;;;;;;6250340;28;20281;-61
2024/01/29 05:29:05;;;;;;;3.80;2.47;;;-2.00;72.80;;;;;;6260268;28;20194;-61
2024/01/29 05:32:06;;;;;;;4.53;2.83;;;-1.90;73.20;;;;;;6256232;28;20188;-62
2024/01/29 05:35:07;;;;;;;4.90;2.80;;;-1.90;73.10;;;;;;6260288;28;20194;-61
2024/01/29 05:38:08;;;;;;;5.67;3.07;;;-1.90;72.90;;;;;;6243173;28;20201;-60
2024/01/29 05:41:08;;;;;;;4.70;3.07;;;-1.90;73.00;;;;;;6240704;28;20198;-61
2024/01/29 05:44:09;;;;;;;4.60;3.03;;;-1.90;72.90;;;;;;6247114;28;20225;-60
2024/01/29 05:47:10;;;;;;;5.90;3.33;;;-1.90;72.50;;;;;;6270479;28;20195;-61
2024/01/29 05:50:10;;;;;;;6.73;3.37;;;-2.00;72.70;;;;;;6261478;28;20204;-60
2024/01/29 05:53:11;;;;;;;5.40;3.27;;;-2.00;72.60;;;;;;6279087;28;20206;-60
2024/01/29 05:56:13;;;;;;;6.33;3.43;;;-2.00;72.60;;;;;;6257426;28;20206;-60
2024/01/29 05:59:14;;;;;;;6.60;3.30;;;-2.10;72.10;;;;;;6251396;28;20198;-60
2024/01/29 06:02:14;;;;;;;6.43;3.40;;;-2.10;72.30;;;;;;6246278;28;20309;-60
2024/01/29 06:05:15;;;;;;;9.00;3.40;;;-2.10;72.50;;;;;;6252394;28;20270;-60
2024/01/29 06:08:16;;;;;;;5.73;3.40;;;-2.10;72.90;;;;;;6246102;28;20197;-60
2024/01/29 06:11:17;;;;;;;5.23;3.13;;;-2.00;72.20;;;;;;6257097;28;20323;-61
2024/01/29 06:14:18;;;;;;;3.83;2.83;;;-2.10;72.70;;;;;;6240209;28;20192;-61
2024/01/29 06:17:19;;;;;;;5.07;3.27;;;-2.00;72.40;;;;;;6270190;28;20225;-61
2024/01/29 06:20:19;;;;;;;5.70;3.70;;;-2.00;72.40;;;;;;6263275;28;20227;-60
2024/01/29 06:23:20;;;;;;;6.47;3.63;;;-2.10;72.10;;;;;;6246093;28;20215;-61
2024/01/29 06:26:21;;;;;;;6.30;3.23;;;-2.10;72.70;;;;;;6248451;28;20205;-61
2024/01/29 06:29:22;;;;;;;5.57;3.40;;;-2.10;72.40;;;;;;6242679;28;20250;-60
2024/01/29 06:32:23;;;;;;;8.53;4.00;;;-2.10;72.80;;;;;;6265534;28;20185;-60
2024/01/29 06:35:23;;;;;;;4.67;3.53;;;-2.20;72.60;;;;;;6243457;28;20226;-60
2024/01/29 06:38:24;;;;;;;6.57;3.20;;;-2.20;73.10;;;;;;6250092;28;20196;-60
2024/01/29 06:41:27;;;;;;;8.07;3.37;;;-2.20;73.20;;;;;;6253286;28;20195;-61
2024/01/29 06:44:27;;;;;;;5.03;2.80;;;-2.20;73.30;;;;;;6256503;28;20216;-61
2024/01/29 06:47:28;;;;;;;4.67;3.00;;;-2.10;73.20;;;;;;6253986;28;20211;-60
2024/01/29 06:50:29;;;;;;;9.07;3.50;;;-2.10;73.10;;;;;;6250173;28;20187;-60
2024/01/29 06:53:29;;;;;;;5.90;3.20;;;-1.90;72.40;;;;;;6251103;28;20193;-60
2024/01/29 06:56:30;;;;;;;7.60;3.77;;;-2.10;72.60;;;;;;6248955;28;20199;-61
2024/01/29 06:59:31;;;;;;;5.43;2.67;;;-2.10;72.70;;;;;;6257592;28;20198;-60
2024/01/29 07:02:32;;;;;;;5.20;3.47;;;-2.10;72.60;;;;;;6247536;28;20668;-61
2024/01/29 07:05:33;;;;;;;4.83;3.57;;;-2.10;72.80;;;;;;6263877;28;20220;-61
2024/01/29 07:08:33;;;;;;;4.73;3.03;;;-2.10;72.90;;;;;;6272042;28;20188;-60
2024/01/29 07:11:34;;;;;;;5.23;3.03;;;-2.10;72.50;;;;;;6248163;28;20193;-61
2024/01/29 07:14:35;;;;;;;5.33;3.07;;;-2.10;72.60;;;;;;6254064;28;20283;-60
2024/01/29 07:17:35;;;;;;;9.43;3.93;;;-2.10;72.50;;;;;;6242370;28;20217;-61
2024/01/29 07:20:41;;;;;;;5.20;3.50;;;-2.10;72.70;;;;;;6256614;28;20199;-60
2024/01/29 07:23:42;;;;;;;4.30;2.70;;;-2.10;72.90;;;;;;6249640;28;20216;-60
2024/01/29 07:26:42;;;;;;;5.63;3.83;;;-2.10;72.60;;;;;;6251206;28;20246;-60
2024/01/29 07:29:44;;;;;;;8.60;3.70;;;-2.10;72.80;;;;;;6252970;28;20201;-61
2024/01/29 07:32:45;;;;;;;6.53;3.60;;;-2.10;72.90;;;;;;6257528;28;20193;-60
2024/01/29 07:35:46;;;;;;;6.17;3.83;;;-2.10;73.10;;;;;;6237143;28;20197;-60
2024/01/29 07:38:46;;;;;;;4.43;3.37;;;-2.10;73.10;;;;;;6256831;28;20187;-61
2024/01/29 07:41:47;;;;;;;5.60;3.40;;;-2.00;73.20;;;;;;6257758;28;20199;-61
2024/01/29 07:44:48;;;;;;;5.83;3.33;;;-1.90;73.00;;;;;;6250587;28;20208;-60
2024/01/29 07:47:50;;;;;;;6.70;3.63;;;-1.80;72.90;;;;;;6265388;28;20182;-60
2024/01/29 07:50:51;;;;;;;4.77;3.40;;;-1.80;72.60;;;;;;6253108;28;20189;-61
2024/01/29 07:53:51;;;;;;;5.17;3.60;;;-1.80;72.90;;;;;;6253590;28;20199;-60
2024/01/29 07:56:52;;;;;;;6.07;3.63;;;-1.70;72.70;;;;;;6263840;28;20198;-61
2024/01/29 07:59:53;;;;;;;9.37;3.30;;;-1.70;72.90;;;;;;6250772;28;20233;-60
2024/01/29 08:02:53;;;;;;;6.73;3.40;;;-1.70;72.50;;;;;;6257825;28;20281;-61
2024/01/29 08:05:54;;;;;;;4.80;3.17;;;-1.60;72.60;;;;;;6255588;28;20185;-60
2024/01/29 08:08:55;;;;;;;254.90;192.40;;;-1.50;72.60;;;;;;6255781;28;20186;-61
2024/01/29 08:11:55;;;;;;;6.73;3.30;;;-1.50;73.00;;;;;;6242493;28;20227;-61
2024/01/29 08:14:56;;;;;;;4.50;3.20;;;-1.40;73.00;;;;;;6251060;28;20282;-61
2024/01/29 08:17:57;;;;;;;7.90;3.57;;;-1.30;72.80;;;;;;6243858;28;20193;-61
2024/01/29 08:20:57;;;;;;;8.83;3.80;;;-1.30;72.60;;;;;;6238172;28;20217;-61
2024/01/29 08:23:58;;;;;;;6.17;4.47;;;-1.20;72.80;;;;;;6249610;28;20277;-61
2024/01/29 08:26:59;;;;;;;4.70;3.63;;;-1.00;72.50;;;;;;6272747;28;20184;-61
2024/01/29 08:30:00;;;;;;;7.97;4.03;;;-1.00;72.10;;;;;;6254831;28;20272;-61
2024/01/29 08:33:00;;;;;;;5.10;3.80;;;-0.90;72.20;;;;;;6251398;28;20182;-61
2024/01/29 08:36:01;;;;;;;8.33;4.10;;;-0.80;71.50;;;;;;6244602;28;20278;-61
2024/01/29 08:39:02;;;;;;;9.20;4.17;;;-0.70;71.00;;;;;;6246273;28;20186;-61
2024/01/29 08:42:06;;;;;;;12.77;3.63;;;-0.70;70.70;;;;;;6236049;28;20223;-61
2024/01/29 08:45:06;;;;;;;5.17;3.83;;;-0.70;70.30;;;;;;6248643;28;20210;-61
2024/01/29 08:48:07;;;;;;;5.10;3.53;;;-0.60;70.20;;;;;;6262947;28;20220;-61
2024/01/29 08:51:08;;;;;;;6.73;3.40;;;-0.50;69.80;;;;;;6254233;28;20208;-61
2024/01/29 08:54:09;;;;;;;9.70;3.57;;;-0.40;69.30;;;;;;6264923;28;20196;-61
2024/01/29 08:57:09;;;;;;;6.73;3.73;;;-0.30;69.00;;;;;;6251583;28;20201;-61
2024/01/29 09:00:11;;;;;;;4.73;3.73;;;-0.30;68.80;;;;;;6247984;28;20236;-61
2024/01/29 09:03:12;;;;;;;6.67;4.37;;;-0.20;68.80;;;;;;6236590;28;20213;-61
2024/01/29 09:06:13;;;;;;;7.73;4.57;;;-0.20;68.80;;;;;;6250302;28;20221;-61
2024/01/29 09:09:14;;;;;;;4.50;3.60;;;-0.20;68.30;;;;;;6271668;28;20187;-61
2024/01/29 09:12:15;;;;;;;5.23;3.40;;;-0.10;68.20;;;;;;6250855;28;20182;-61
2024/01/29 09:15:15;;;;;;;7.03;3.97;;;-0.10;68.30;;;;;;6247070;28;20195;-61
2024/01/29 09:18:16;;;;;;;6.27;3.90;;;-0.10;68.30;;;;;;6249358;28;20193;-61
2024/01/29 09:21:17;;;;;;;7.03;4.17;;;0.00;68.60;;;;;;6247639;28;20198;-61
2024/01/29 09:24:17;;;;;;;8.97;5.53;;;0.00;68.60;;;;;;6244726;28;20218;-61
2024/01/29 09:27:18;;;;;;;8.73;4.43;;;0.00;68.50;;;;;;6277115;28;20214;-61
2024/01/29 09:30:19;;;;;;;6.77;4.30;;;0.10;68.40;;;;;;6275976;28;20192;-62
2024/01/29 09:33:20;;;;;;;6.03;3.87;;;0.30;67.70;;;;;;6251760;28;20247;-61
2024/01/29 09:36:20;;;;;;;6.83;4.40;;;0.40;67.70;;;;;;6252807;28;20202;-61
2024/01/29 09:39:24;;;;;;;6.80;3.90;;;0.50;67.50;;;;;;6246216;28;20190;-61
2024/01/29 09:42:28;;;;;;;6.80;3.97;;;0.50;67.50;;;;;;6262565;28;20269;-61
2024/01/29 09:45:29;;;;;;;6.60;3.70;;;0.60;67.00;;;;;;6261501;28;20210;-61
2024/01/29 09:48:32;;;;;;;7.80;3.47;;;;;;;;;;6252287;28;20196;-61
2024/01/29 09:51:33;;;;;;;5.80;3.10;;;0.60;66.70;;;;;;6265003;28;20198;-61
2024/01/29 09:54:34;;;;;;;6.33;3.87;;;1.00;65.10;;;;;;6240436;28;20187;-61
2024/01/29 09:57:35;;;;;;;6.93;3.50;;;1.00;65.30;;;;;;6242611;28;21685;-61
2024/01/29 10:00:36;;;;;;;5.97;3.20;;;1.10;64.70;;;;;;6255180;28;20249;-61
2024/01/29 10:03:38;;;;;;;6.63;2.97;;;1.30;63.80;;;;;;6259516;28;20213;-61
2024/01/29 10:06:39;;;;;;;6.60;3.97;;;1.40;63.10;;;;;;6254537;28;20183;-61
2024/01/29 10:09:40;;;;;;;7.67;3.83;;;1.50;62.40;;;;;;6258918;28;20265;-61
2024/01/29 10:12:41;;;;;;;9.63;3.50;;;1.60;62.50;;;;;;6249238;28;20194;-61
2024/01/29 10:15:43;;;;;;;7.13;4.23;;;1.70;62.20;;;;;;6239189;28;20210;-61
2024/01/29 10:18:43;;;;;;;9.67;4.13;;;1.80;62.10;;;;;;6246377;28;20193;-61
2024/01/29 10:21:48;;;;;;;8.47;4.23;;;1.90;62.00;;;;;;6243155;28;20193;-61
2024/01/29 10:24:59;;;;;;;9.67;4.50;;;2.10;61.20;;;;;;6263115;28;20232;-61
2024/01/29 10:28:11;;;;;;;8.57;4.90;;;2.20;60.80;;;;;;6251918;28;20187;-61
2024/01/29 10:31:11;;;;;;;9.03;4.80;;;2.30;60.70;;;;;;6248829;28;20257;-61
2024/01/29 10:34:12;;;;;;;7.17;4.53;;;2.40;61.00;;;;;;6236207;28;20217;-61
2024/01/29 10:37:15;;;;;;;7.90;4.23;;;2.40;61.00;;;;;;6269455;28;20205;-61
2024/01/29 10:40:21;;;;;;;10.23;5.27;;;2.40;61.10;;;;;;6273283;28;20193;-61
2024/01/29 10:43:25;;;;;;;15.73;6.53;;;2.50;60.70;;;;;;6258856;28;20266;-61
2024/01/29 10:46:26;;;;;;;9.43;6.10;;;2.70;60.70;;;;;;6266605;28;20187;-62
2024/01/29 10:49:31;;;;;;;8.13;5.83;;;2.80;60.40;;;;;;6257988;28;20186;-61
2024/01/29 10:52:33;;;;;;;9.53;6.90;;;2.90;60.40;;;;;;6262028;28;20212;-61
2024/01/29 10:55:34;;;;;;;14.80;6.30;;;2.90;60.70;;;;;;6245622;28;20240;-61
2024/01/29 10:58:36;;;;;;;11.10;6.93;;;3.00;61.10;;;;;;6259259;28;20220;-61
2024/01/29 11:01:37;;;;;;;15.63;7.03;;;3.10;61.30;;;;;;6249495;28;20242;-61
2024/01/29 11:04:38;;;;;;;12.03;6.93;;;3.20;61.10;;;;;;6253286;28;20210;-61
2024/01/29 11:07:44;;;;;;;15.23;7.20;;;3.30;61.10;;;;;;6259514;28;20196;-61
2024/01/29 11:10:44;;;;;;;12.77;7.70;;;3.40;61.20;;;;;;6243082;28;20191;-61
2024/01/29 11:13:45;;;;;;;13.57;6.37;;;3.50;61.00;;;;;;6245477;28;20193;-62
2024/01/29 11:16:46;;;;;;;9.30;6.10;;;3.50;61.60;;;;;;6260094;28;20228;-61
2024/01/29 11:19:51;;;;;;;9.83;6.20;;;3.70;60.70;;;;;;6234176;28;20301;-61
2024/01/29 11:22:56;;;;;;;13.80;6.90;;;3.90;60.10;;;;;;6257607;28;20197;-61
2024/01/29 11:26:00;;;;;;;9.00;6.03;;;3.90;59.30;;;;;;6254655;28;20197;-61
2024/01/29 11:29:02;;;;;;;10.67;6.50;;;4.00;59.80;;;;;;6248693;28;20289;-62
2024/01/29 11:32:04;;;;;;;8.27;5.93;;;4.00;58.80;;;;;;6248891;28;20194;-61
2024/01/29 11:35:18;;;;;;;10.97;5.50;;;4.10;59.00;;;;;;6234721;28;20248;-61
2024/01/29 11:38:22;;;;;;;10.70;5.63;;;4.30;58.80;;;;;;6250347;28;20281;-61
2024/01/29 11:41:23;;;;;;;8.70;5.23;;;4.30;58.20;;;;;;6266235;28;20199;-61
2024/01/29 11:44:25;;;;;;;12.70;6.10;;;4.50;57.80;;;;;;6248165;28;20217;-61
2024/01/29 11:47:25;;;;;;;10.17;5.80;;;4.50;57.60;;;;;;6255940;28;20221;-61
2024/01/29 11:50:27;;;;;;;8.60;4.73;;;4.60;57.10;;;;;;6242712;28;20194;-62
2024/01/29 11:53:28;;;;;;;8.60;5.23;;;4.70;56.90;;;;;;6249263;28;20277;-62
2024/01/29 11:56:28;;;;;;;12.10;6.00;;;4.80;57.10;;;;;;6239607;28;20195;-62
2024/01/29 11:59:29;;;;;;;10.90;5.60;;;5.00;57.30;;;;;;6248026;28;20202;-61
2024/01/29 12:02:30;;;;;;;9.23;4.93;;;5.10;57.10;;;;;;6244462;28;20202;-61
2024/01/29 12:05:31;;;;;;;10.43;5.67;;;5.10;56.50;;;;;;6265585;28;20209;-62
2024/01/29 12:08:33;;;;;;;8.77;5.13;;;5.30;55.50;;;;;;6248767;28;20221;-61
2024/01/29 12:11:33;;;;;;;10.47;6.13;;;5.30;55.70;;;;;;6264614;28;20198;-61
2024/01/29 12:14:34;;;;;;;7.10;5.00;;;5.50;54.80;;;;;;6246941;28;20197;-61
2024/01/29 12:17:39;;;;;;;8.63;5.00;;;5.60;54.70;;;;;;6257801;28;20199;-61
2024/01/29 12:20:40;;;;;;;7.53;5.10;;;5.70;55.10;;;;;;6261976;28;20198;-61
2024/01/29 12:23:41;;;;;;;12.80;5.53;;;5.80;53.80;;;;;;6241930;28;20214;-61
2024/01/29 12:26:42;;;;;;;8.63;5.23;;;6.00;54.20;;;;;;6245404;28;20194;-62
2024/01/29 12:29:44;;;;;;;9.80;5.60;;;6.10;52.60;;;;;;6283926;28;20192;-61
2024/01/29 12:32:45;;;;;;;8.47;5.63;;;6.30;52.60;;;;;;6247965;28;20189;-61
2024/01/29 12:35:46;;;;;;;9.90;5.80;;;6.30;52.80;;;;;;6247793;28;20191;-61
2024/01/29 12:38:54;;;;;;;11.03;5.37;;;6.50;52.90;;;;;;6270494;28;20212;-61
2024/01/29 12:41:55;;;;;;;8.97;5.23;;;6.70;52.30;;;;;;6248326;28;20197;-61
2024/01/29 12:44:58;;;;;;;8.13;5.70;;;6.70;52.20;;;;;;6257667;28;20297;-61
2024/01/29 12:48:27;;;;;;;12.43;6.33;;;6.90;52.30;;;;;;6242536;28;20273;-61
2024/01/29 12:51:27;;;;;;;8.30;6.33;;;7.00;50.80;;;;;;6267567;28;20190;-61
2024/01/29 12:54:28;;;;;;;16.00;6.63;;;7.00;50.90;;;;;;6237056;28;20197;-61
2024/01/29 12:57:29;;;;;;;10.40;6.67;;;7.20;51.20;;;;;;6246177;28;20198;-61
2024/01/29 13:00:29;;;;;;;10.27;5.90;;;7.20;51.10;;;;;;6234674;28;20329;-61
2024/01/29 13:03:32;;;;;;;9.43;5.57;;;7.30;51.00;;;;;;6250316;28;20312;-61
2024/01/29 13:06:32;;;;;;;9.27;5.90;;;7.50;51.30;;;;;;6261809;28;20217;-61
2024/01/29 13:09:33;;;;;;;8.77;5.57;;;7.50;51.00;;;;;;6248574;28;20233;-61
2024/01/29 13:12:34;;;;;;;8.87;6.27;;;7.60;51.20;;;;;;6233332;28;20193;-61
2024/01/29 13:15:35;;;;;;;10.70;6.20;;;7.60;50.60;;;;;;6237038;28;20266;-61
2024/01/29 13:18:36;;;;;;;11.37;6.63;;;7.80;50.40;;;;;;6249192;28;20186;-61
2024/01/29 13:21:36;;;;;;;11.20;6.43;;;7.80;49.60;;;;;;6244474;28;20230;-61
2024/01/29 13:24:37;;;;;;;10.60;6.77;;;7.80;49.60;;;;;;6260087;28;20286;-61
2024/01/29 13:27:38;;;;;;;11.30;7.27;;;7.90;49.20;;;;;;6245449;28;20260;-61
2024/01/29 13:30:38;;;;;;;11.23;6.00;;;8.00;49.60;;;;;;6242523;28;20193;-62
2024/01/29 13:33:40;;;;;;;13.10;6.47;;;;;;;;;;6269452;28;20292;-61
2024/01/29 13:36:41;;;;;;;8.57;5.90;;;8.30;48.90;;;;;;6247107;28;20272;-61
2024/01/29 13:39:42;;;;;;;15.60;6.17;;;8.40;49.00;;;;;;6245339;28;20254;-61
2024/01/29 13:42:43;;;;;;;10.53;6.13;;;;;;;;;;6264314;28;20190;-61
2024/01/29 13:45:46;;;;;;;8.10;5.30;;;8.40;47.50;;;;;;6264820;28;20210;-61
2024/01/29 13:48:47;;;;;;;11.80;6.27;;;8.50;48.00;;;;;;6256808;28;20284;-61
2024/01/29 13:51:47;;;;;;;7.70;4.97;;;8.60;48.00;;;;;;6259261;28;20261;-61
2024/01/29 13:54:48;;;;;;;8.90;5.73;;;;;;;;;;6243463;28;20210;-61
2024/01/29 13:57:49;;;;;;;13.23;6.53;;;9.00;47.90;;;;;;6249625;28;20205;-61
2024/01/29 14:00:50;;;;;;;12.73;5.93;;;9.20;45.70;;;;;;6289376;28;20243;-61
2024/01/29 14:03:53;;;;;;;9.20;5.13;;;9.10;45.40;;;;;;6252704;28;20245;-62
2024/01/29 14:06:58;;;;;;;7.50;5.00;;;9.00;46.20;;;;;;6251487;28;20252;-65
2024/01/29 14:10:00;;;;;;;8.87;5.00;;;9.20;46.50;;;;;;6244741;28;20273;-62
2024/01/29 14:13:00;;;;;;;9.57;5.80;;;9.30;45.50;;;;;;6256556;28;20198;-60
2024/01/29 14:16:04;;;;;;;6.87;5.20;;;9.20;45.80;;;;;;6236532;28;20191;-60
2024/01/29 14:19:05;;;;;;;10.13;5.77;;;9.40;45.70;;;;;;6240955;28;20187;-60
2024/01/29 14:22:05;;;;;;;9.27;5.00;;;9.50;44.00;;;;;;6268635;28;20196;-60
2024/01/29 14:25:07;;;;;;;10.47;5.50;;;;;;;;;;6263326;28;20251;-60
2024/01/29 14:28:09;;;;;;;8.70;5.67;;;;;;;;;;6264194;28;20235;-61
2024/01/29 14:31:10;;;;;;;8.87;5.33;;;;;;;;;;6283380;28;20188;-60
2024/01/29 14:34:11;;;;;;;9.53;5.43;;;;;;;;;;6273491;28;20207;-60
2024/01/29 14:37:12;;;;;;;13.53;6.27;;;;;;;;;;6252548;28;20185;-60
2024/01/29 14:40:13;;;;;;;7.97;5.37;;;;;;;;;;6265763;28;20182;-59
2024/01/29 14:43:14;;;;;;;11.47;6.07;;;;;;;;;;6243792;28;20232;-60
2024/01/29 14:46:15;;;;;;;9.80;5.77;;;;;;;;;;6278506;28;20197;-59
2024/01/29 14:49:17;;;;;;;9.43;5.30;;;;;;;;;;6274695;28;20181;-59
2024/01/29 14:52:19;;;;;;;13.30;5.30;;;;;;;;;;6270860;28;20324;-60
2024/01/29 14:55:20;;;;;;;9.90;5.00;;;;;;;;;;6255735;28;20212;-59
2024/01/29 14:58:28;;;;;;;6.90;5.00;;;;;;;;;;6255443;28;20198;-59
2024/01/29 15:01:29;;;;;;;10.90;5.23;;;;;;;;;;6262639;28;20253;-59
2024/01/29 15:04:30;;;;;;;6.60;4.90;;;;;;;;;;6255359;28;20866;-61
2024/01/29 15:07:31;;;;;;;12.40;5.10;;;;;;;;;;6247339;28;20243;-63
2024/01/29 15:10:33;;;;;;;8.40;4.77;;;;;;;;;;6252665;28;20190;-63
2024/01/29 15:13:34;;;;;;;7.53;4.47;;;;;;;;;;6272358;28;20220;-63
2024/01/29 15:16:35;;;;;;;8.40;4.57;;;;;;;;;;6253102;28;20206;-63
2024/01/29 15:19:36;;;;;;;7.60;4.47;;;;;;;;;;6290156;28;20190;-63
2024/01/29 15:22:38;;;;;;;11.00;5.00;;;;;;;;;;6285067;28;20200;-63
2024/01/29 15:25:39;;;;;;;6.80;4.23;;;;;;;;;;6249145;28;20214;-63
2024/01/29 15:28:40;;;;;;;9.17;4.80;;;;;;;;;;6279689;28;20193;-63
2024/01/29 15:31:41;;;;;;;6.97;4.30;;;;;;;;;;6279895;28;20197;-62
2024/01/29 15:34:47;;;;;;;5.30;3.90;;;;;;;;;;6281264;28;20201;-63
2024/01/29 15:37:48;;;;;;;7.33;4.63;;;9.40;45.50;;;;;;6268009;28;20221;-62
2024/01/29 15:40:52;;;;;;;6.50;4.80;;;6.30;51.00;;;;;;6251023;28;20259;-63
2024/01/29 15:43:53;;;;;;;7.33;4.37;;;6.20;51.30;;;;;;6251068;28;20938;-63
2024/01/29 15:46:53;;;;;;;6.57;4.07;;;6.00;51.70;;;;;;6245407;28;20190;-62
2024/01/29 15:49:54;;;;;;;6.07;4.83;;;5.80;52.50;;;;;;6255106;28;20261;-62
2024/01/29 15:52:55;;;;;;;7.07;4.00;;;5.60;52.50;;;;;;6256896;28;20189;-63
2024/01/29 15:55:56;;;;;;;9.63;4.37;;;5.50;53.10;;;;;;6272939;28;20200;-62